Time;durP1;ratioP1;P1;durP2;ratioP2;P2;SDS_P1;SDS_P2;PMS_P1;PMS_P2;Temp;Humidity;BMP_temperature;BMP_pressure;BME280_temperature;BME280_humidity;BME280_pressure;Samples;Min_cycle;Max_cycle;Signal;HPM_P1;HPM_P2
2023/03/09 00:01:45;;;;;;;21.37;9.83;;;3.70;99.90;;;;;;5047654;28;20669;-63
2023/03/09 00:04:15;;;;;;;22.27;10.57;;;3.70;99.90;;;;;;5046305;28;20856;-63
2023/03/09 00:06:41;;;;;;;20.47;10.53;;;3.90;99.90;;;;;;5039240;28;20262;-63
2023/03/09 00:09:07;;;;;;;21.87;10.13;;;4.10;99.90;;;;;;5034553;28;20175;-63
2023/03/09 00:11:34;;;;;;;20.90;9.97;;;4.10;99.90;;;;;;5038077;28;20270;-63
2023/03/09 00:13:59;;;;;;;26.80;13.13;;;4.20;99.90;;;;;;5035507;28;20637;-63
2023/03/09 00:16:28;;;;;;;25.83;11.87;;;4.30;99.90;;;;;;5036737;28;20189;-63
2023/03/09 00:18:57;;;;;;;22.93;10.20;;;4.40;99.90;;;;;;5046406;28;20219;-63
2023/03/09 00:21:40;;;;;;;25.67;11.23;;;4.30;99.90;;;;;;5043281;28;20210;-63
2023/03/09 00:24:11;;;;;;;26.20;11.40;;;4.20;99.90;;;;;;5058485;28;20250;-63
2023/03/09 00:26:40;;;;;;;20.30;12.07;;;3.90;99.90;;;;;;5043951;28;20637;-64
2023/03/09 00:29:08;;;;;;;25.63;13.37;;;3.90;99.90;;;;;;5048213;28;20265;-64
2023/03/09 00:31:33;;;;;;;19.93;10.63;;;4.00;99.90;;;;;;5048758;28;20178;-63
2023/03/09 00:33:59;;;;;;;31.53;14.60;;;4.20;99.90;;;;;;5035495;28;20183;-64
2023/03/09 00:36:25;;;;;;;24.77;11.87;;;4.20;99.90;;;;;;5041513;28;20187;-63
2023/03/09 00:38:55;;;;;;;28.30;14.20;;;4.30;99.90;;;;;;5059899;28;20567;-64
2023/03/09 00:41:23;;;;;;;31.87;13.30;;;4.30;99.90;;;;;;5034078;28;20742;-64
2023/03/09 00:43:49;;;;;;;22.83;13.70;;;4.20;99.90;;;;;;5035190;28;20197;-64
2023/03/09 00:46:16;;;;;;;30.73;13.00;;;4.20;99.90;;;;;;5033341;28;20190;-63
2023/03/09 00:48:42;;;;;;;29.60;15.23;;;4.20;99.90;;;;;;5037387;28;20703;-63
2023/03/09 00:51:08;;;;;;;30.33;15.33;;;4.10;99.90;;;;;;5041356;28;20193;-64
2023/03/09 00:53:35;;;;;;;29.23;15.73;;;4.10;99.90;;;;;;5042578;28;20423;-63
2023/03/09 00:56:07;;;;;;;32.97;13.97;;;4.10;99.90;;;;;;5048335;28;20721;-63
2023/03/09 00:58:33;;;;;;;41.63;21.73;;;4.20;99.90;;;;;;5052439;28;20190;-63
2023/03/09 01:00:59;;;;;;;31.30;14.73;;;4.20;99.90;;;;;;5040281;28;20577;-65
2023/03/09 01:03:25;;;;;;;47.63;23.67;;;4.30;99.90;;;;;;5039159;28;20309;-64
2023/03/09 01:05:51;;;;;;;30.90;14.83;;;4.20;99.90;;;;;;5049550;28;20547;-64
2023/03/09 01:08:16;;;;;;;31.33;14.53;;;4.30;99.90;;;;;;5043752;28;20190;-63
2023/03/09 01:10:42;;;;;;;32.13;14.03;;;4.40;99.90;;;;;;5064290;28;20195;-64
2023/03/09 01:13:10;;;;;;;34.60;14.10;;;4.60;99.90;;;;;;5046160;28;20674;-64
2023/03/09 01:15:37;;;;;;;30.83;11.73;;;4.40;99.90;;;;;;5053110;28;20182;-65
2023/03/09 01:18:02;;;;;;;33.97;16.87;;;4.30;99.90;;;;;;5063657;28;20213;-64
2023/03/09 01:20:28;;;;;;;37.63;15.63;;;4.30;99.90;;;;;;5045523;28;20190;-64
2023/03/09 01:22:54;;;;;;;31.00;14.90;;;4.20;99.90;;;;;;5050559;28;20194;-64
2023/03/09 01:25:19;;;;;;;39.73;15.73;;;4.20;99.90;;;;;;5061373;28;20215;-64
2023/03/09 01:27:45;;;;;;;27.83;14.07;;;4.10;99.90;;;;;;5079082;28;20228;-64
2023/03/09 01:30:11;;;;;;;34.93;14.57;;;4.20;99.90;;;;;;5034327;28;20221;-65
2023/03/09 01:32:37;;;;;;;31.83;15.87;;;4.20;99.90;;;;;;5039045;28;20186;-64
2023/03/09 01:35:04;;;;;;;27.23;14.57;;;4.30;99.90;;;;;;5040739;28;20197;-64
2023/03/09 01:37:30;;;;;;;34.13;17.50;;;4.30;99.90;;;;;;5060142;28;20268;-63
2023/03/09 01:39:56;;;;;;;29.47;14.40;;;4.30;99.90;;;;;;5048289;28;20222;-64
2023/03/09 01:42:21;;;;;;;30.77;14.73;;;4.40;99.90;;;;;;5060260;28;20307;-64
2023/03/09 01:45:18;;;;;;;37.37;15.50;;;4.40;99.90;;;;;;5055512;28;20189;-63
2023/03/09 01:47:45;;;;;;;31.33;14.63;;;4.40;99.90;;;;;;5034285;28;20174;-63
2023/03/09 01:50:11;;;;;;;34.37;14.30;;;4.40;99.90;;;;;;5054505;28;20239;-64
2023/03/09 01:52:39;;;;;;;30.57;14.80;;;4.30;99.90;;;;;;5054093;28;20190;-63
2023/03/09 01:55:12;;;;;;;31.67;15.00;;;4.20;99.90;;;;;;5039853;28;20191;-63
2023/03/09 01:57:48;;;;;;;36.13;13.60;;;4.30;99.90;;;;;;5034616;28;20677;-64
2023/03/09 02:00:18;;;;;;;29.47;12.87;;;4.30;99.90;;;;;;5040226;28;20631;-64
2023/03/09 02:02:49;;;;;;;35.20;14.27;;;4.20;99.90;;;;;;5063709;28;20542;-63
2023/03/09 02:05:21;;;;;;;29.33;14.80;;;4.20;99.90;;;;;;5047853;28;20179;-64
2023/03/09 02:07:49;;;;;;;29.27;14.23;;;4.20;99.90;;;;;;5042116;28;20546;-63
2023/03/09 02:10:30;;;;;;;35.90;14.57;;;4.30;99.90;;;;;;5048088;28;20190;-63
2023/03/09 02:13:06;;;;;;;25.10;13.33;;;4.40;99.90;;;;;;5038315;28;20185;-64
2023/03/09 02:15:31;;;;;;;31.47;13.70;;;4.40;99.90;;;;;;5046058;28;20174;-64
2023/03/09 02:17:57;;;;;;;39.07;15.93;;;4.40;99.90;;;;;;5048193;28;20244;-64
2023/03/09 02:20:49;;;;;;;31.40;13.27;;;4.30;99.90;;;;;;5039989;28;20644;-64
2023/03/09 02:23:44;;;;;;;39.03;16.23;;;4.30;99.90;;;;;;5057515;28;20179;-64
2023/03/09 02:26:12;;;;;;;30.97;13.37;;;4.20;99.90;;;;;;5036402;28;20560;-64
2023/03/09 02:28:38;;;;;;;29.37;14.40;;;4.20;99.90;;;;;;5044316;28;20643;-64
2023/03/09 02:31:05;;;;;;;33.77;14.23;;;4.40;99.90;;;;;;5043228;28;20272;-64
2023/03/09 02:33:30;;;;;;;24.97;11.20;;;4.10;99.90;;;;;;5063137;28;20184;-64
2023/03/09 02:35:58;;;;;;;30.60;12.83;;;3.90;99.90;;;;;;5043340;28;20611;-63
2023/03/09 02:38:24;;;;;;;28.50;14.30;;;3.90;99.90;;;;;;5054377;28;20265;-62
2023/03/09 02:40:52;;;;;;;32.03;15.07;;;3.80;99.90;;;;;;5047143;28;20246;-64
2023/03/09 02:43:22;;;;;;;33.57;13.50;;;4.00;99.90;;;;;;5056549;28;20659;-63
2023/03/09 02:45:49;;;;;;;32.83;13.40;;;3.90;99.90;;;;;;5056782;28;20193;-62
2023/03/09 02:48:15;;;;;;;27.77;12.57;;;3.80;99.90;;;;;;5034309;28;20302;-64
2023/03/09 02:50:41;;;;;;;29.80;12.33;;;3.90;99.90;;;;;;5036081;28;20228;-64
2023/03/09 02:53:06;;;;;;;32.77;12.37;;;4.00;99.90;;;;;;5048991;28;20194;-63
2023/03/09 02:55:32;;;;;;;27.40;13.37;;;4.00;99.90;;;;;;5034769;28;20194;-62
2023/03/09 02:57:58;;;;;;;33.13;12.03;;;3.80;99.90;;;;;;5040536;28;20234;-63
2023/03/09 03:00:25;;;;;;;32.10;11.27;;;3.80;99.90;;;;;;5036108;28;20202;-63
2023/03/09 03:02:51;;;;;;;31.40;11.50;;;3.70;99.90;;;;;;5038226;28;20201;-64
2023/03/09 03:05:17;;;;;;;37.20;15.97;;;3.60;99.90;;;;;;5048448;28;20187;-64
2023/03/09 03:07:42;;;;;;;24.93;12.23;;;3.50;99.90;;;;;;5033989;28;20189;-65
2023/03/09 03:10:09;;;;;;;26.87;14.00;;;3.60;99.90;;;;;;5052868;28;20212;-63
2023/03/09 03:12:35;;;;;;;28.27;12.47;;;3.60;99.90;;;;;;5033898;28;20197;-63
2023/03/09 03:15:01;;;;;;;23.40;12.43;;;3.80;99.90;;;;;;5045293;28;20186;-62
2023/03/09 03:17:26;;;;;;;23.27;11.70;;;3.90;99.90;;;;;;5043963;28;20598;-64
2023/03/09 03:19:53;;;;;;;33.10;13.47;;;3.90;99.90;;;;;;5042710;28;20207;-62
2023/03/09 03:22:19;;;;;;;22.30;12.20;;;3.90;99.90;;;;;;5051956;28;20635;-63
2023/03/09 03:24:45;;;;;;;32.97;13.47;;;4.00;99.90;;;;;;5046473;28;20178;-63
2023/03/09 03:27:10;;;;;;;23.23;11.93;;;4.00;99.90;;;;;;5033060;28;20183;-63
2023/03/09 03:29:36;;;;;;;23.90;11.17;;;4.00;99.90;;;;;;5038747;28;20181;-63
2023/03/09 03:32:02;;;;;;;24.07;11.37;;;4.20;99.90;;;;;;5045235;28;20610;-63
2023/03/09 03:34:28;;;;;;;23.07;10.50;;;4.00;99.90;;;;;;5049341;28;20277;-64
2023/03/09 03:36:54;;;;;;;25.90;11.93;;;3.80;99.90;;;;;;5062574;28;20255;-63
2023/03/09 03:39:20;;;;;;;25.67;12.07;;;3.80;99.90;;;;;;5041801;28;20542;-62
2023/03/09 03:41:45;;;;;;;25.87;12.13;;;3.90;99.90;;;;;;5039741;28;20214;-63
2023/03/09 03:44:11;;;;;;;22.07;11.03;;;3.70;99.90;;;;;;5034164;28;20191;-63
2023/03/09 03:46:37;;;;;;;26.73;11.93;;;3.60;99.90;;;;;;5039611;28;20182;-63
2023/03/09 03:49:02;;;;;;;26.97;11.57;;;3.50;99.90;;;;;;5042052;28;20573;-62
2023/03/09 03:51:28;;;;;;;21.90;11.67;;;3.50;99.90;;;;;;5046712;28;20197;-63
2023/03/09 03:53:54;;;;;;;24.27;11.00;;;3.50;99.90;;;;;;5047996;28;20197;-64
2023/03/09 03:56:19;;;;;;;28.43;13.53;;;3.60;99.90;;;;;;5046904;28;20230;-63
2023/03/09 03:58:45;;;;;;;22.63;10.37;;;3.60;99.90;;;;;;5040518;28;20269;-63
2023/03/09 04:01:11;;;;;;;22.50;11.40;;;3.50;99.90;;;;;;5048570;28;20217;-63
2023/03/09 04:03:36;;;;;;;26.47;11.20;;;3.70;99.90;;;;;;5050061;28;20268;-63
2023/03/09 04:06:02;;;;;;;26.53;12.20;;;4.00;99.90;;;;;;5068582;28;20235;-63
2023/03/09 04:08:29;;;;;;;24.03;11.77;;;3.90;99.90;;;;;;5042661;28;20186;-63
2023/03/09 04:10:55;;;;;;;27.77;10.90;;;3.70;99.90;;;;;;5038593;28;20194;-62
2023/03/09 04:13:21;;;;;;;24.57;11.40;;;3.70;99.90;;;;;;5056843;28;20292;-63
2023/03/09 04:15:47;;;;;;;22.83;10.63;;;3.60;99.90;;;;;;5048720;28;20249;-64
2023/03/09 04:18:13;;;;;;;26.67;11.57;;;3.60;99.90;;;;;;5033364;28;20191;-63
2023/03/09 04:20:40;;;;;;;21.10;10.47;;;3.60;99.90;;;;;;5036041;28;20707;-62
2023/03/09 04:23:06;;;;;;;26.07;11.13;;;3.50;99.90;;;;;;5032306;28;20684;-64
2023/03/09 04:25:32;;;;;;;22.23;10.77;;;3.40;99.90;;;;;;5032223;28;20638;-63
2023/03/09 04:27:57;;;;;;;24.27;9.37;;;3.60;99.90;;;;;;5035898;28;20314;-63
2023/03/09 04:30:23;;;;;;;22.13;12.30;;;3.60;99.90;;;;;;5046582;28;20194;-62
2023/03/09 04:32:49;;;;;;;17.60;8.73;;;3.60;99.90;;;;;;5038212;28;20209;-63
2023/03/09 04:35:15;;;;;;;23.80;9.67;;;3.70;99.90;;;;;;5048495;28;20664;-63
2023/03/09 04:37:43;;;;;;;22.13;10.13;;;3.60;99.90;;;;;;5049014;28;20185;-63
2023/03/09 04:40:10;;;;;;;25.73;10.57;;;3.60;99.90;;;;;;5045735;28;20208;-64
2023/03/09 04:42:36;;;;;;;15.97;8.93;;;3.70;99.90;;;;;;5045204;28;20199;-64
2023/03/09 04:45:03;;;;;;;16.43;8.97;;;3.60;99.90;;;;;;5055508;28;20192;-65
2023/03/09 04:47:29;;;;;;;18.20;9.83;;;3.60;99.90;;;;;;5060028;28;20182;-64
2023/03/09 04:49:54;;;;;;;21.67;10.10;;;3.60;99.90;;;;;;5041327;28;20682;-64
2023/03/09 04:52:20;;;;;;;18.20;10.07;;;3.70;99.90;;;;;;5041156;28;20453;-64
2023/03/09 04:54:47;;;;;;;20.40;10.23;;;3.60;99.90;;;;;;5040756;28;20195;-63
2023/03/09 04:57:12;;;;;;;23.03;8.70;;;3.70;99.90;;;;;;5049313;28;20229;-63
2023/03/09 04:59:38;;;;;;;23.03;10.93;;;3.70;99.90;;;;;;5054825;28;20645;-63
2023/03/09 05:02:04;;;;;;;15.97;8.37;;;3.70;99.90;;;;;;5047843;28;20206;-65
2023/03/09 05:04:29;;;;;;;16.67;8.47;;;3.70;99.90;;;;;;5054767;28;20186;-63
2023/03/09 05:06:56;;;;;;;23.23;10.60;;;3.60;99.90;;;;;;5055285;28;20201;-61
2023/03/09 05:09:22;;;;;;;23.57;9.73;;;3.50;99.90;;;;;;5041985;28;20530;-63
2023/03/09 05:11:51;;;;;;;21.07;9.10;;;3.30;99.90;;;;;;5046598;28;20550;-63
2023/03/09 05:14:18;;;;;;;20.07;9.80;;;3.30;99.90;;;;;;5057041;28;20181;-62
2023/03/09 05:16:44;;;;;;;18.60;8.63;;;3.40;99.90;;;;;;5053388;28;20190;-63
2023/03/09 05:19:10;;;;;;;24.23;10.23;;;3.40;99.90;;;;;;5040672;28;20598;-62
2023/03/09 05:21:36;;;;;;;21.73;9.77;;;3.50;99.90;;;;;;5034856;28;20206;-62
2023/03/09 05:24:03;;;;;;;19.67;9.67;;;3.50;99.90;;;;;;5035273;28;20250;-63
2023/03/09 05:26:29;;;;;;;17.17;8.50;;;3.40;99.90;;;;;;5047926;28;20193;-63
2023/03/09 05:28:55;;;;;;;24.30;11.07;;;3.50;99.90;;;;;;5043343;28;20186;-64
2023/03/09 05:31:20;;;;;;;26.37;10.83;;;3.50;99.90;;;;;;5051075;28;20616;-64
2023/03/09 05:33:46;;;;;;;27.23;11.60;;;3.50;99.90;;;;;;5042480;28;20585;-63
2023/03/09 05:36:20;;;;;;;20.40;11.70;;;3.40;99.90;;;;;;5046413;28;20190;-62
2023/03/09 05:38:46;;;;;;;21.70;9.23;;;3.30;99.90;;;;;;5061427;28;20194;-63
2023/03/09 05:41:12;;;;;;;18.70;9.47;;;3.30;99.90;;;;;;5047281;28;20199;-63
2023/03/09 05:43:41;;;;;;;17.37;9.27;;;3.30;99.90;;;;;;5055855;28;20190;-63
2023/03/09 05:46:09;;;;;;;22.93;11.70;;;3.30;99.90;;;;;;5040634;28;20649;-63
2023/03/09 05:48:35;;;;;;;21.73;11.17;;;3.20;99.90;;;;;;5068242;28;20183;-63
2023/03/09 05:51:01;;;;;;;21.93;11.37;;;3.20;99.90;;;;;;5047269;28;20206;-63
2023/03/09 05:53:27;;;;;;;23.07;11.53;;;3.40;99.90;;;;;;5048099;28;20540;-62
2023/03/09 05:55:53;;;;;;;24.90;10.50;;;3.40;99.90;;;;;;5041585;28;20292;-62
2023/03/09 05:58:19;;;;;;;24.27;9.43;;;3.50;99.90;;;;;;5036574;28;20187;-63
2023/03/09 06:00:45;;;;;;;22.67;12.03;;;3.50;99.90;;;;;;5046468;28;20206;-63
2023/03/09 06:03:11;;;;;;;23.57;10.63;;;3.30;99.90;;;;;;5034747;28;20193;-62
2023/03/09 06:05:37;;;;;;;22.93;12.07;;;3.50;99.90;;;;;;5051124;28;20186;-63
2023/03/09 06:08:03;;;;;;;24.40;11.27;;;3.40;99.90;;;;;;5050679;28;20187;-63
2023/03/09 06:10:28;;;;;;;23.70;11.10;;;3.40;99.90;;;;;;5063950;28;20281;-63
2023/03/09 06:12:54;;;;;;;19.90;10.10;;;3.50;99.90;;;;;;5053153;28;20663;-65
2023/03/09 06:15:20;;;;;;;20.93;10.33;;;3.50;99.90;;;;;;5054720;28;20213;-65
2023/03/09 06:17:46;;;;;;;17.90;10.53;;;3.50;99.90;;;;;;5065794;28;20275;-64
2023/03/09 06:20:11;;;;;;;22.57;10.07;;;3.40;99.90;;;;;;5040875;28;20191;-64
2023/03/09 06:22:39;;;;;;;20.57;10.70;;;3.30;99.90;;;;;;5064861;28;20262;-63
2023/03/09 06:25:05;;;;;;;20.37;10.90;;;3.40;99.90;;;;;;5049680;28;20663;-64
2023/03/09 06:27:34;;;;;;;26.83;11.47;;;3.50;99.90;;;;;;5058240;28;20197;-63
2023/03/09 06:29:59;;;;;;;18.77;10.83;;;3.70;99.90;;;;;;5051555;28;20576;-63
2023/03/09 06:32:25;;;;;;;25.97;11.80;;;3.50;99.90;;;;;;5050156;28;20286;-63
2023/03/09 06:34:51;;;;;;;19.47;10.70;;;3.50;99.90;;;;;;5048930;28;20209;-63
2023/03/09 06:37:16;;;;;;;21.33;11.07;;;3.50;99.90;;;;;;5056947;28;20251;-63
2023/03/09 06:39:42;;;;;;;24.03;10.20;;;3.70;99.90;;;;;;5060839;28;20280;-64
2023/03/09 06:42:08;;;;;;;22.80;10.13;;;3.80;99.90;;;;;;5042917;28;20611;-64
2023/03/09 06:44:34;;;;;;;24.47;10.60;;;3.90;99.90;;;;;;5033207;28;20301;-63
2023/03/09 06:47:00;;;;;;;19.23;10.07;;;4.00;99.90;;;;;;5040253;28;20232;-63
2023/03/09 06:49:26;;;;;;;21.33;10.77;;;4.00;99.90;;;;;;5038278;28;20190;-64
2023/03/09 06:51:51;;;;;;;20.40;8.60;;;4.00;99.90;;;;;;5050628;28;20190;-64
2023/03/09 06:54:17;;;;;;;19.93;10.10;;;4.00;99.90;;;;;;5050174;28;20186;-64
2023/03/09 06:56:43;;;;;;;18.77;9.63;;;3.90;99.90;;;;;;5037498;28;20237;-63
2023/03/09 06:59:08;;;;;;;22.13;11.90;;;3.90;99.90;;;;;;5033020;28;20225;-63
2023/03/09 07:01:34;;;;;;;21.50;11.33;;;4.00;99.90;;;;;;5034560;28;20210;-63
2023/03/09 07:04:01;;;;;;;26.53;10.97;;;3.90;99.90;;;;;;5033442;28;20195;-63
2023/03/09 07:06:26;;;;;;;24.47;11.30;;;3.90;99.90;;;;;;5033361;28;20261;-64
2023/03/09 07:08:52;;;;;;;25.17;11.47;;;4.00;99.90;;;;;;5065265;28;20270;-63
2023/03/09 07:11:18;;;;;;;20.20;10.10;;;4.20;99.90;;;;;;5044019;28;20240;-63
2023/03/09 07:13:43;;;;;;;20.43;11.07;;;4.30;99.90;;;;;;5042103;28;20232;-64
2023/03/09 07:16:09;;;;;;;18.53;10.27;;;4.20;99.90;;;;;;5044309;28;20194;-63
2023/03/09 07:18:35;;;;;;;20.07;9.40;;;4.20;99.90;;;;;;5041680;28;20277;-63
2023/03/09 07:21:02;;;;;;;22.40;10.50;;;4.40;99.90;;;;;;5045361;28;20244;-64
2023/03/09 07:23:31;;;;;;;23.10;10.53;;;4.40;99.90;;;;;;5051827;28;20189;-63
2023/03/09 07:26:04;;;;;;;17.93;8.77;;;4.30;99.90;;;;;;5032367;28;20179;-63
2023/03/09 07:28:31;;;;;;;18.20;8.37;;;4.40;99.90;;;;;;5042735;28;20194;-63
2023/03/09 07:30:56;;;;;;;20.30;9.00;;;4.60;99.90;;;;;;5048913;28;20185;-62
2023/03/09 07:33:22;;;;;;;18.43;10.70;;;4.70;99.90;;;;;;5033856;28;20241;-62
2023/03/09 07:35:48;;;;;;;19.90;9.87;;;4.60;99.90;;;;;;5040417;28;20209;-62
2023/03/09 07:38:14;;;;;;;19.37;9.07;;;4.60;99.90;;;;;;5050914;28;20669;-63
2023/03/09 07:40:40;;;;;;;19.73;9.27;;;4.60;99.90;;;;;;5053013;28;20191;-62
2023/03/09 07:43:06;;;;;;;18.47;9.63;;;4.60;99.90;;;;;;5041655;28;20194;-62
2023/03/09 07:45:32;;;;;;;26.43;11.47;;;4.70;99.90;;;;;;5033417;28;20201;-62
2023/03/09 07:47:57;;;;;;;18.37;10.03;;;4.80;99.90;;;;;;5052658;28;20183;-64
2023/03/09 07:50:23;;;;;;;19.17;9.17;;;4.80;99.90;;;;;;5031285;28;20198;-63
2023/03/09 07:52:49;;;;;;;23.33;9.60;;;4.90;99.90;;;;;;5034084;28;20187;-63
2023/03/09 07:55:15;;;;;;;19.17;8.97;;;4.90;99.90;;;;;;5074903;28;20187;-63
2023/03/09 07:57:42;;;;;;;23.90;10.27;;;4.90;99.90;;;;;;5054444;28;20255;-63
2023/03/09 08:00:12;;;;;;;18.73;8.63;;;4.90;99.90;;;;;;5041675;28;20178;-63
2023/03/09 08:02:41;;;;;;;21.53;11.20;;;5.20;99.90;;;;;;5043746;28;20202;-63
2023/03/09 08:05:08;;;;;;;20.37;9.10;;;5.00;99.90;;;;;;5042142;28;20197;-64
2023/03/09 08:08:02;;;;;;;24.33;10.17;;;5.00;99.90;;;;;;5096882;27;20553;-64
2023/03/09 08:10:28;;;;;;;27.07;11.30;;;4.90;99.90;;;;;;5076933;28;20195;-62
2023/03/09 08:12:54;;;;;;;24.00;12.27;;;4.90;99.90;;;;;;5079011;28;20209;-64
2023/03/09 08:15:20;;;;;;;23.87;11.80;;;5.00;99.90;;;;;;5073061;28;20189;-63
2023/03/09 08:17:46;;;;;;;24.90;11.10;;;5.10;99.90;;;;;;5060052;28;20185;-63
2023/03/09 08:20:12;;;;;;;24.70;9.97;;;5.40;99.90;;;;;;5081975;28;20209;-63
2023/03/09 08:22:38;;;;;;;27.70;11.67;;;5.60;99.90;;;;;;5083726;28;20220;-65
2023/03/09 08:25:04;;;;;;;22.80;10.23;;;5.90;99.90;;;;;;5080176;28;20254;-63
2023/03/09 08:27:36;;;;;;;28.53;12.90;;;6.00;99.90;;;;;;5085031;28;20223;-64
2023/03/09 08:30:03;;;;;;;26.07;11.37;;;5.80;99.90;;;;;;5074187;28;20198;-63
2023/03/09 08:32:29;;;;;;;30.30;13.83;;;5.70;99.90;;;;;;5084898;28;20681;-63
2023/03/09 08:34:55;;;;;;;30.00;13.07;;;6.00;99.90;;;;;;5085344;28;20632;-63
2023/03/09 08:37:21;;;;;;;28.70;12.83;;;6.00;99.90;;;;;;5076416;28;20200;-63
2023/03/09 08:39:46;;;;;;;26.03;12.30;;;6.10;99.90;;;;;;5081705;28;20181;-63
2023/03/09 08:42:12;;;;;;;27.10;9.83;;;6.20;99.90;;;;;;5081191;28;20189;-64
2023/03/09 08:44:38;;;;;;;28.30;12.47;;;6.10;99.90;;;;;;5077279;28;20189;-63
2023/03/09 08:47:03;;;;;;;29.13;11.60;;;6.20;99.90;;;;;;5077055;28;20224;-63
2023/03/09 08:49:29;;;;;;;29.73;11.03;;;6.40;99.90;;;;;;5053105;28;20193;-63
2023/03/09 08:51:55;;;;;;;25.43;12.87;;;6.30;99.90;;;;;;5074221;28;20196;-63
2023/03/09 08:54:20;;;;;;;27.73;11.43;;;6.30;99.90;;;;;;5083168;28;20189;-63
2023/03/09 08:56:46;;;;;;;22.03;11.73;;;6.20;99.90;;;;;;5069688;28;20234;-63
2023/03/09 08:59:12;;;;;;;29.20;13.70;;;6.10;99.90;;;;;;5078685;28;20507;-63
2023/03/09 09:01:37;;;;;;;42.77;13.93;;;6.30;99.90;;;;;;5074826;28;20267;-63
2023/03/09 09:04:04;;;;;;;25.23;12.00;;;6.50;99.90;;;;;;5083084;28;20193;-64
2023/03/09 09:06:29;;;;;;;27.23;13.20;;;6.60;99.90;;;;;;5077943;28;20253;-63
2023/03/09 09:08:55;;;;;;;31.77;12.37;;;6.70;99.90;;;;;;5085785;28;20380;-63
2023/03/09 09:11:21;;;;;;;31.37;13.47;;;6.50;99.90;;;;;;5079238;28;20189;-64
2023/03/09 09:13:47;;;;;;;29.63;13.33;;;6.40;99.90;;;;;;5070988;28;20182;-63
2023/03/09 09:16:15;;;;;;;27.63;13.07;;;6.50;99.90;;;;;;5068793;28;20190;-64
2023/03/09 09:18:41;;;;;;;29.43;12.60;;;6.50;99.90;;;;;;5058877;28;20190;-62
2023/03/09 09:21:09;;;;;;;33.20;13.87;;;6.60;99.90;;;;;;5061684;28;20258;-62
2023/03/09 09:23:35;;;;;;;35.07;13.77;;;6.80;99.90;;;;;;5069262;28;20532;-63
2023/03/09 09:26:01;;;;;;;25.57;13.43;;;6.70;99.90;;;;;;5064124;28;20651;-63
2023/03/09 09:28:27;;;;;;;25.00;12.70;;;6.90;99.90;;;;;;5065319;28;20193;-63
2023/03/09 09:31:00;;;;;;;33.07;13.90;;;7.10;99.90;;;;;;5060482;28;20232;-63
2023/03/09 09:33:31;;;;;;;21.23;12.07;;;7.20;99.90;;;;;;5066301;28;20187;-63
2023/03/09 09:36:03;;;;;;;33.33;13.63;;;7.30;99.90;;;;;;5065792;28;20248;-62
2023/03/09 09:38:30;;;;;;;33.07;12.77;;;7.20;99.90;;;;;;5071128;28;20178;-63
2023/03/09 09:40:59;;;;;;;29.40;13.77;;;7.30;99.90;;;;;;5063455;28;20185;-62
2023/03/09 09:43:26;;;;;;;34.17;16.17;;;7.10;99.90;;;;;;5068732;28;20715;-63
2023/03/09 09:45:55;;;;;;;40.53;15.43;;;7.30;99.90;;;;;;5060956;28;20212;-62
2023/03/09 09:48:22;;;;;;;37.10;16.30;;;7.40;99.90;;;;;;5056316;28;20216;-63
2023/03/09 09:51:08;;;;;;;34.47;14.77;;;7.30;99.90;;;;;;5061339;28;20249;-63
2023/03/09 09:53:36;;;;;;;35.17;14.77;;;7.10;99.90;;;;;;5066691;28;20181;-62
2023/03/09 09:56:03;;;;;;;39.83;16.70;;;7.20;99.90;;;;;;5065661;28;20198;-63
2023/03/09 09:58:49;;;;;;;44.07;16.27;;;7.20;99.90;;;;;;5056378;28;20182;-62
2023/03/09 10:01:40;;;;;;;43.00;15.73;;;7.00;99.90;;;;;;5058811;28;20634;-62
2023/03/09 10:04:14;;;;;;;38.33;17.33;;;7.30;99.90;;;;;;5060353;28;20196;-62
2023/03/09 10:06:41;;;;;;;40.73;15.33;;;7.60;99.90;;;;;;5059721;28;20248;-63
2023/03/09 10:09:16;;;;;;;34.03;16.50;;;7.70;99.90;;;;;;5049241;28;20236;-64
2023/03/09 10:11:46;;;;;;;35.60;17.40;;;7.90;99.90;;;;;;5034837;28;20174;-63
2023/03/09 10:14:41;;;;;;;42.03;18.07;;;7.90;99.90;;;;;;5051950;28;20186;-63
2023/03/09 10:17:21;;;;;;;34.33;15.63;;;7.50;99.90;;;;;;5034055;28;20234;-63
2023/03/09 10:19:48;;;;;;;36.77;16.27;;;7.50;99.90;;;;;;5034710;28;20175;-63
2023/03/09 10:22:16;;;;;;;33.87;16.33;;;7.60;99.90;;;;;;5047974;28;20190;-64
2023/03/09 10:24:52;;;;;;;36.10;15.00;;;7.90;99.90;;;;;;5035040;28;20185;-64
2023/03/09 10:27:30;;;;;;;40.73;17.37;;;8.00;99.90;;;;;;5043778;28;20198;-64
2023/03/09 10:30:10;;;;;;;35.23;17.47;;;8.20;99.90;;;;;;5037251;28;20178;-63
2023/03/09 10:32:54;;;;;;;37.83;15.70;;;8.20;99.90;;;;;;5048009;28;20210;-63
2023/03/09 10:35:22;;;;;;;43.23;18.83;;;7.90;99.90;;;;;;5034242;28;20546;-64
2023/03/09 10:37:50;;;;;;;36.93;16.73;;;7.70;99.90;;;;;;5039184;28;20186;-66
2023/03/09 10:40:20;;;;;;;32.33;15.33;;;7.70;99.90;;;;;;5043734;28;20272;-65
2023/03/09 10:42:46;;;;;;;41.90;17.30;;;7.50;99.90;;;;;;5052789;28;20182;-65
2023/03/09 10:45:28;;;;;;;34.50;15.10;;;7.20;99.90;;;;;;5043887;28;20197;-64
2023/03/09 10:48:07;;;;;;;44.93;18.80;;;7.30;99.90;;;;;;5047678;28;20197;-63
2023/03/09 10:50:40;;;;;;;33.40;14.87;;;7.20;99.90;;;;;;5039201;28;20183;-63
2023/03/09 10:53:34;;;;;;;34.57;16.90;;;7.30;99.90;;;;;;5037126;28;20210;-64
2023/03/09 10:56:07;;;;;;;35.43;17.23;;;7.40;99.90;;;;;;5027070;28;20182;-65
2023/03/09 10:58:33;;;;;;;35.90;15.27;;;7.30;99.90;;;;;;5033347;28;20217;-65
2023/03/09 11:01:20;;;;;;;41.80;17.40;;;7.60;99.90;;;;;;5040869;28;20205;-64
2023/03/09 11:03:45;;;;;;;34.17;14.57;;;7.80;99.90;;;;;;5037272;28;20260;-64
2023/03/09 11:06:30;;;;;;;36.23;16.93;;;8.10;99.90;;;;;;5042661;28;20324;-64
2023/03/09 11:09:04;;;;;;;35.87;15.10;;;8.00;99.90;;;;;;5049857;28;20186;-64
2023/03/09 11:11:29;;;;;;;39.57;16.70;;;7.90;99.90;;;;;;5030336;28;20186;-64
2023/03/09 11:13:55;;;;;;;31.17;13.50;;;8.00;99.90;;;;;;5037372;28;20712;-64
2023/03/09 11:16:21;;;;;;;40.80;17.23;;;8.00;99.90;;;;;;5046453;28;20179;-63
2023/03/09 11:18:48;;;;;;;32.97;14.90;;;7.50;99.90;;;;;;5032929;28;20587;-63
2023/03/09 11:21:23;;;;;;;32.03;14.70;;;7.30;99.90;;;;;;5041720;28;20197;-64
2023/03/09 11:23:53;;;;;;;32.57;15.70;;;7.30;99.90;;;;;;5038005;28;20186;-64
2023/03/09 11:26:25;;;;;;;30.90;13.93;;;7.30;99.90;;;;;;5035985;28;20206;-64
2023/03/09 11:28:57;;;;;;;30.33;13.77;;;7.00;99.90;;;;;;5042002;28;20709;-64
2023/03/09 11:31:31;;;;;;;33.37;14.40;;;6.90;99.90;;;;;;5048943;28;20210;-64
2023/03/09 11:33:58;;;;;;;31.87;13.87;;;6.90;99.90;;;;;;5022006;28;20206;-63
2023/03/09 11:36:55;;;;;;;33.63;14.57;;;7.20;99.90;;;;;;5016214;28;20555;-64
2023/03/09 11:39:28;;;;;;;29.77;13.40;;;7.50;99.90;;;;;;5042501;28;20174;-64
2023/03/09 11:41:57;;;;;;;29.27;13.30;;;7.80;99.90;;;;;;5044647;28;20344;-63
2023/03/09 11:44:33;;;;;;;29.93;13.53;;;7.90;99.90;;;;;;5023001;28;20189;-63
2023/03/09 11:47:29;;;;;;;34.10;12.47;;;7.90;99.90;;;;;;5042902;28;20189;-64
2023/03/09 11:49:59;;;;;;;30.50;13.47;;;7.70;99.90;;;;;;5017951;28;20583;-63
2023/03/09 11:52:36;;;;;;;40.27;15.17;;;7.80;99.90;;;;;;5036083;28;20544;-63
2023/03/09 11:55:10;;;;;;;34.67;14.20;;;7.80;99.90;;;;;;5044489;28;20273;-63
2023/03/09 11:57:39;;;;;;;28.80;13.20;;;7.80;99.90;;;;;;5035659;28;20182;-63
2023/03/09 12:00:11;;;;;;;31.07;13.93;;;7.80;99.90;;;;;;5021100;28;20202;-63
2023/03/09 12:03:11;;;;;;;29.77;14.03;;;7.80;99.90;;;;;;5033062;28;20186;-63
2023/03/09 12:05:45;;;;;;;28.57;12.43;;;8.10;99.90;;;;;;5033535;28;20204;-63
2023/03/09 12:08:20;;;;;;;25.13;12.57;;;8.30;99.90;;;;;;5038200;28;20647;-64
2023/03/09 12:11:01;;;;;;;30.90;14.80;;;8.40;99.90;;;;;;5036102;28;20178;-64
2023/03/09 12:13:32;;;;;;;33.07;16.00;;;8.50;99.90;;;;;;5042509;28;20228;-64
2023/03/09 12:16:02;;;;;;;25.13;13.73;;;8.30;99.90;;;;;;5034664;28;20730;-64
2023/03/09 12:18:33;;;;;;;38.17;16.27;;;8.20;99.90;;;;;;5038643;28;20654;-64
2023/03/09 12:21:01;;;;;;;30.30;13.93;;;8.00;99.90;;;;;;5040448;28;20183;-64
2023/03/09 12:23:36;;;;;;;32.57;14.73;;;7.90;99.90;;;;;;5037831;28;20197;-64
2023/03/09 12:26:05;;;;;;;35.77;15.50;;;8.10;99.90;;;;;;5035231;28;20218;-64
2023/03/09 12:28:31;;;;;;;32.43;14.73;;;8.50;99.90;;;;;;5044520;28;20193;-64
2023/03/09 12:31:02;;;;;;;32.43;15.03;;;8.70;99.90;;;;;;5025095;28;20686;-65
2023/03/09 12:33:45;;;;;;;31.27;14.50;;;8.60;99.90;;;;;;5037033;28;20181;-64
2023/03/09 12:36:41;;;;;;;29.23;14.63;;;8.70;99.90;;;;;;5033195;28;20586;-64
2023/03/09 12:39:42;;;;;;;33.93;14.90;;;9.10;99.90;;;;;;5041973;28;20265;-62
2023/03/09 12:42:14;;;;;;;29.43;13.27;;;9.50;99.90;;;;;;4990915;28;20201;-62
2023/03/09 12:44:43;;;;;;;34.33;15.33;;;9.80;99.90;;;;;;5048327;28;20651;-63
2023/03/09 12:47:43;;;;;;;36.25;15.07;;;10.20;99.90;;;;;;5051375;28;20296;-62